createdAt,value
2022-08-18T00:01:22.546Z,27.94
2022-08-18T00:03:55.968Z,27.97
2022-08-18T00:06:29.641Z,27.90
2022-08-18T00:08:59.592Z,27.54
2022-08-18T00:11:40.421Z,27.76
2022-08-18T00:14:21.660Z,27.57
2022-08-18T00:16:53.071Z,27.66
2022-08-18T00:19:46.746Z,27.70
2022-08-18T00:22:14.665Z,27.89
2022-08-18T00:24:48.653Z,27.96
2022-08-18T00:27:23.302Z,28.08
2022-08-18T00:29:52.905Z,28.01
2022-08-18T00:32:23.643Z,27.78
2022-08-18T00:34:52.073Z,27.68
2022-08-18T00:37:22.466Z,27.26
2022-08-18T00:39:52.659Z,27.65
2022-08-18T00:42:26.983Z,27.56
2022-08-18T00:44:59.740Z,27.28
2022-08-18T00:47:41.752Z,26.85
2022-08-18T00:50:16.314Z,27.04
2022-08-18T00:52:55.212Z,26.93
2022-08-18T00:55:23.958Z,26.96
2022-08-18T00:57:55.098Z,27.10
2022-08-18T01:00:23.545Z,26.90
2022-08-18T01:02:54.648Z,27.07
2022-08-18T01:05:26.078Z,27.01
2022-08-18T01:07:56.372Z,26.96
2022-08-18T01:10:25.150Z,27.35
2022-08-18T01:12:55.571Z,27.41
2022-08-18T01:15:29.369Z,27.40
2022-08-18T01:18:16.668Z,27.28
2022-08-18T01:21:06.241Z,27.44
2022-08-18T01:23:37.332Z,27.26
2022-08-18T01:26:04.840Z,26.84
2022-08-18T01:28:35.104Z,26.76
2022-08-18T01:31:04.093Z,26.97
2022-08-18T01:33:36.712Z,27.00
2022-08-18T01:36:12.836Z,26.93
2022-08-18T01:38:42.491Z,26.48
2022-08-18T01:41:26.078Z,26.47
2022-08-18T01:43:58.713Z,26.62
2022-08-18T01:46:27.459Z,26.62
2022-08-18T01:48:58.680Z,26.67
2022-08-18T01:51:38.272Z,26.49
2022-08-18T01:54:13.161Z,26.62
2022-08-18T01:56:42.474Z,26.54
2022-08-18T01:59:14.618Z,26.38
2022-08-18T02:01:48.692Z,26.58
2022-08-18T02:04:35.046Z,26.46
2022-08-18T02:07:09.797Z,26.13
2022-08-18T02:09:41.045Z,25.84
2022-08-18T02:12:09.836Z,25.98
2022-08-18T02:14:38.705Z,25.95
2022-08-18T02:17:08.944Z,26.07
2022-08-18T02:19:39.054Z,26.34
2022-08-18T02:22:09.505Z,25.82
2022-08-18T02:24:39.191Z,25.81
2022-08-18T02:27:08.823Z,25.96
2022-08-18T02:29:37.632Z,26.05
2022-08-18T02:32:06.684Z,25.91
2022-08-18T02:34:34.953Z,25.56
2022-08-18T02:37:04.540Z,25.43
2022-08-18T02:39:35.146Z,25.45
2022-08-18T02:42:05.289Z,25.52
2022-08-18T02:44:33.599Z,25.73
2022-08-18T02:47:02.350Z,25.47
2022-08-18T02:49:30.584Z,25.45
2022-08-18T02:51:59.120Z,25.36
2022-08-18T02:54:27.351Z,25.13
2022-08-18T02:56:57.270Z,24.86
2022-08-18T02:59:31.949Z,24.57
2022-08-18T03:02:01.931Z,24.88
2022-08-18T03:04:31.418Z,25.01
2022-08-18T03:07:02.182Z,25.13
2022-08-18T03:09:31.633Z,25.32
2022-08-18T03:12:00.163Z,25.17
2022-08-18T03:14:30.026Z,24.87
2022-08-18T03:16:58.565Z,24.94
2022-08-18T03:19:28.751Z,24.91
2022-08-18T03:22:02.940Z,24.83
2022-08-18T03:24:33.785Z,24.71
2022-08-18T03:27:02.707Z,25.00
2022-08-18T03:29:33.075Z,25.07
2022-08-18T03:32:02.306Z,25.07
2022-08-18T03:34:30.880Z,25.00
2022-08-18T03:37:00.235Z,25.11
2022-08-18T03:39:29.628Z,24.53
2022-08-18T03:42:01.627Z,25.08
2022-08-18T03:44:33.475Z,24.90
2022-08-18T03:47:03.194Z,25.20
2022-08-18T03:49:32.432Z,24.76
2022-08-18T03:52:01.583Z,24.79
2022-08-18T03:54:32.254Z,24.98
2022-08-18T03:59:48.436Z,24.91
2022-08-18T04:02:16.860Z,24.88
2022-08-18T04:04:45.200Z,24.93
2022-08-18T04:07:17.299Z,24.94
2022-08-18T04:09:46.033Z,24.59
2022-08-18T04:12:16.750Z,24.86
2022-08-18T04:14:49.405Z,25.00
2022-08-18T04:17:20.451Z,25.07
2022-08-18T04:19:48.678Z,24.17
2022-08-18T04:22:18.500Z,24.53
2022-08-18T04:24:47.049Z,24.82
2022-08-18T04:27:15.493Z,25.01
2022-08-18T04:29:43.731Z,24.95
2022-08-18T04:32:13.446Z,25.32
2022-08-18T04:34:41.801Z,25.12
2022-08-18T04:37:11.029Z,25.14
2022-08-18T04:39:39.530Z,25.44
2022-08-18T04:42:08.040Z,24.84
2022-08-18T04:44:37.910Z,25.59
2022-08-18T04:47:06.942Z,25.60
2022-08-18T04:49:37.184Z,25.37
2022-08-18T04:52:40.051Z,25.62
2022-08-18T04:55:10.884Z,25.85
2022-08-18T04:57:39.535Z,25.79
2022-08-18T05:00:11.144Z,25.93
2022-08-18T05:02:39.450Z,25.93
2022-08-18T05:05:10.236Z,25.96
2022-08-18T05:07:38.571Z,25.97
2022-08-18T05:10:07.261Z,25.79
2022-08-18T05:12:36.564Z,25.87
2022-08-18T05:15:05.451Z,25.66
2022-08-18T05:17:33.725Z,25.75
2022-08-18T05:20:03.885Z,26.14
2022-08-18T05:22:39.211Z,26.31
2022-08-18T05:27:54.672Z,26.49
2022-08-18T05:30:22.988Z,26.31
2022-08-18T05:32:51.391Z,26.70
2022-08-18T05:35:23.889Z,26.67
2022-08-18T05:38:09.179Z,26.85
2022-08-18T05:40:38.089Z,26.86
2022-08-18T05:43:06.781Z,27.01
2022-08-18T05:45:36.174Z,27.24
2022-08-18T05:48:04.960Z,27.02
2022-08-18T05:50:35.656Z,27.24
2022-08-18T05:53:13.485Z,27.45
2022-08-18T05:56:14.622Z,27.50
2022-08-18T05:58:45.103Z,27.72
2022-08-18T06:01:16.141Z,27.90
2022-08-18T06:03:47.786Z,28.39
2022-08-18T06:06:19.679Z,28.31
2022-08-18T06:08:55.405Z,27.94
2022-08-18T06:11:23.610Z,28.57
2022-08-18T06:13:59.456Z,28.17
2022-08-18T06:16:44.536Z,27.64
2022-08-18T06:19:33.576Z,28.34
2022-08-18T06:22:07.686Z,28.47
2022-08-18T06:24:45.441Z,28.54
2022-08-18T06:27:18.751Z,28.84
2022-08-18T06:29:56.155Z,28.54
2022-08-18T06:32:32.169Z,29.39
2022-08-18T06:35:10.803Z,29.46
2022-08-18T06:38:03.901Z,29.67
2022-08-18T06:40:33.453Z,29.19
2022-08-18T06:43:02.040Z,29.22
2022-08-18T06:45:39.934Z,29.86
2022-08-18T06:48:15.601Z,30.07
2022-08-18T06:50:50.612Z,29.91
2022-08-18T06:53:28.018Z,30.15
2022-08-18T06:55:57.982Z,30.01
2022-08-18T06:58:30.171Z,30.31
2022-08-18T07:01:02.234Z,30.38
2022-08-18T07:03:44.668Z,30.84
2022-08-18T07:06:27.653Z,30.48
2022-08-18T07:08:57.938Z,30.56
2022-08-18T07:11:29.453Z,30.00
2022-08-18T07:14:15.460Z,30.35
2022-08-18T07:16:58.480Z,30.85
2022-08-18T07:19:31.427Z,31.00
2022-08-18T07:22:03.165Z,30.86
2022-08-18T07:24:33.502Z,30.38
2022-08-18T07:27:05.855Z,31.59
2022-08-18T07:29:36.004Z,31.69
2022-08-18T07:32:21.301Z,32.05
2022-08-18T07:34:53.799Z,32.09
2022-08-18T07:37:28.821Z,32.32
2022-08-18T07:40:02.713Z,32.51
2022-08-18T07:43:01.452Z,32.44
2022-08-18T07:45:30.674Z,32.30
2022-08-18T07:48:15.778Z,32.61
2022-08-18T07:51:00.826Z,32.88
2022-08-18T07:53:38.747Z,33.19
2022-08-18T07:56:11.774Z,33.50
2022-08-18T07:58:45.650Z,33.86
2022-08-18T08:01:20.208Z,33.91
2022-08-18T08:03:53.692Z,33.70
2022-08-18T08:06:26.176Z,33.96
2022-08-18T08:09:02.391Z,34.73
2022-08-18T08:11:40.244Z,34.31
2022-08-18T08:14:26.534Z,34.31
2022-08-18T08:17:03.700Z,34.60
2022-08-18T08:20:00.462Z,35.10
2022-08-18T08:22:37.502Z,35.17
2022-08-18T08:25:35.057Z,35.33
2022-08-18T08:28:10.190Z,35.38
2022-08-18T08:30:44.181Z,35.55
2022-08-18T08:33:26.057Z,35.40
2022-08-18T08:35:57.395Z,35.48
2022-08-18T08:38:42.136Z,35.36
2022-08-18T08:41:13.370Z,35.09
2022-08-18T08:43:43.818Z,35.58
2022-08-18T08:46:16.754Z,35.33
2022-08-18T08:48:49.151Z,35.61
2022-08-18T08:51:33.069Z,35.28
2022-08-18T08:54:06.698Z,35.51
2022-08-18T08:56:38.030Z,35.59
2022-08-18T08:59:09.713Z,35.81
2022-08-18T09:01:49.417Z,35.93
2022-08-18T09:04:30.410Z,36.23
2022-08-18T09:07:09.124Z,36.46
2022-08-18T09:10:03.232Z,36.13
2022-08-18T09:12:45.045Z,35.64
2022-08-18T09:15:31.033Z,36.13
2022-08-18T09:18:19.578Z,36.66
2022-08-18T09:20:57.227Z,36.85
2022-08-18T09:23:27.780Z,37.20
2022-08-18T09:25:58.592Z,36.68
2022-08-18T09:28:56.634Z,36.57
2022-08-18T09:31:25.781Z,36.87
2022-08-18T09:34:10.636Z,36.87
2022-08-18T09:36:46.906Z,36.33
2022-08-18T09:39:40.916Z,37.63
2022-08-18T09:42:15.894Z,36.98
2022-08-18T09:45:10.121Z,37.16
2022-08-18T09:48:02.450Z,37.90
2022-08-18T09:50:57.100Z,37.88
2022-08-18T09:53:39.845Z,38.00
2022-08-18T09:56:08.232Z,37.84
2022-08-18T09:58:55.167Z,38.49
2022-08-18T10:01:52.179Z,38.11
2022-08-18T10:04:33.818Z,38.41
2022-08-18T10:07:22.008Z,37.97
2022-08-18T10:10:12.837Z,38.60
2022-08-18T10:13:07.066Z,38.50
2022-08-18T10:15:52.961Z,38.84
2022-08-18T10:18:38.106Z,39.84
2022-08-18T10:21:17.579Z,39.84
2022-08-18T10:24:14.737Z,40.78
2022-08-18T10:27:15.048Z,40.96
2022-08-18T10:29:57.550Z,41.23
2022-08-18T10:32:39.058Z,39.79
2022-08-18T10:35:52.680Z,40.44
2022-08-18T10:38:25.938Z,40.72
2022-08-18T10:41:10.023Z,40.54
2022-08-18T10:43:55.973Z,40.61
2022-08-18T10:49:25.894Z,40.85
2022-08-18T10:52:12.441Z,41.72
2022-08-18T10:54:59.440Z,41.96
2022-08-18T10:57:34.580Z,40.94
2022-08-18T11:00:07.264Z,41.63
2022-08-18T11:02:49.025Z,41.76
2022-08-18T11:05:21.498Z,41.44
2022-08-18T11:07:53.530Z,40.74
2022-08-18T11:10:57.850Z,40.97
2022-08-18T11:13:33.563Z,40.52
2022-08-18T11:18:59.409Z,40.29
2022-08-18T11:21:42.240Z,39.59
2022-08-18T11:24:15.935Z,40.57
2022-08-18T11:26:52.687Z,40.79
2022-08-18T11:29:32.463Z,40.45
2022-08-18T11:32:05.293Z,41.12
2022-08-18T11:34:41.240Z,40.90
2022-08-18T11:37:28.170Z,41.82
2022-08-18T11:43:29.985Z,41.82
2022-08-18T11:46:17.561Z,41.47
2022-08-18T11:48:54.163Z,42.19
2022-08-18T11:51:24.724Z,41.47
2022-08-18T11:56:45.646Z,41.45
2022-08-18T11:59:53.246Z,41.33
2022-08-18T12:02:23.914Z,42.50
2022-08-18T12:04:54.235Z,42.05
2022-08-18T12:07:29.050Z,41.84
2022-08-18T12:10:19.396Z,41.85
2022-08-18T12:18:31.939Z,42.79
2022-08-18T12:21:02.935Z,42.54
2022-08-18T12:23:44.542Z,42.58
2022-08-18T12:29:08.666Z,43.73
2022-08-18T12:34:27.464Z,43.89
2022-08-18T12:36:57.929Z,42.28
2022-08-18T12:39:26.280Z,40.91
2022-08-18T12:41:54.460Z,42.28
2022-08-18T12:44:22.872Z,42.74
2022-08-18T12:46:56.252Z,41.71
2022-08-18T12:49:27.015Z,41.88
2022-08-18T12:51:55.832Z,40.60
2022-08-18T12:54:25.091Z,40.30
2022-08-18T12:56:55.803Z,39.59
2022-08-18T12:59:24.924Z,40.53
2022-08-18T13:01:58.309Z,40.45
2022-08-18T13:04:28.445Z,40.70
2022-08-18T13:07:05.685Z,39.84
2022-08-18T13:09:53.552Z,39.64
2022-08-18T13:12:26.165Z,39.70
2022-08-18T13:14:55.897Z,39.85
2022-08-18T13:17:30.325Z,39.28
2022-08-18T13:20:08.927Z,39.22
2022-08-18T13:22:37.404Z,39.21
2022-08-18T13:25:07.352Z,39.87
2022-08-18T13:27:37.438Z,39.38
2022-08-18T13:30:29.123Z,39.45
2022-08-18T13:32:58.917Z,39.14
2022-08-18T13:35:29.972Z,39.20
2022-08-18T13:38:12.421Z,39.07
2022-08-18T13:40:47.177Z,39.41
2022-08-18T13:43:17.488Z,39.37
2022-08-18T13:45:53.056Z,39.66
2022-08-18T13:48:24.254Z,39.64
2022-08-18T13:50:56.490Z,39.53
2022-08-18T13:53:26.314Z,38.99
2022-08-18T13:55:58.660Z,38.98
2022-08-18T13:58:27.948Z,38.02
2022-08-18T14:01:22.488Z,38.29
2022-08-18T14:03:48.424Z,38.54
2022-08-18T14:06:22.778Z,38.19
2022-08-18T14:08:53.353Z,37.40
2022-08-18T14:11:25.844Z,33.81
2022-08-18T14:13:54.913Z,31.55
2022-08-18T14:16:23.501Z,30.75
2022-08-18T14:19:12.636Z,30.35
2022-08-18T14:22:05.205Z,29.47
2022-08-18T14:24:52.523Z,28.92
2022-08-18T14:27:21.511Z,28.14
2022-08-18T14:29:50.751Z,26.56
2022-08-18T14:32:29.425Z,24.82
2022-08-18T14:35:00.882Z,24.49
2022-08-18T14:37:48.761Z,24.80
2022-08-18T14:40:19.995Z,25.73
2022-08-18T14:42:54.253Z,26.15
2022-08-18T14:45:27.704Z,25.45
2022-08-18T14:48:06.696Z,25.92
2022-08-18T14:50:39.226Z,25.99
2022-08-18T14:53:08.797Z,26.04
2022-08-18T14:55:40.147Z,26.69
2022-08-18T14:58:08.968Z,26.45
2022-08-18T15:00:53.629Z,26.48
2022-08-18T15:03:28.336Z,26.93
2022-08-18T15:06:00.542Z,27.31
2022-08-18T15:08:30.690Z,27.80
2022-08-18T15:11:00.994Z,27.79
2022-08-18T15:13:29.898Z,27.55
2022-08-18T15:16:01.931Z,28.24
2022-08-18T15:18:31.406Z,28.48
2022-08-18T15:21:19.590Z,28.46
2022-08-18T15:24:23.033Z,28.09
2022-08-18T15:26:58.154Z,27.76
2022-08-18T15:29:32.061Z,27.99
2022-08-18T15:32:10.136Z,27.73
2022-08-18T15:34:46.808Z,28.34
2022-08-18T15:37:22.327Z,27.46
2022-08-18T15:40:05.606Z,27.30
2022-08-18T15:42:33.904Z,27.77
2022-08-18T15:45:11.997Z,27.97
2022-08-18T15:47:42.378Z,27.36
2022-08-18T15:50:25.533Z,27.65
2022-08-18T15:52:56.516Z,27.72
2022-08-18T15:55:28.112Z,28.02
2022-08-18T15:57:58.359Z,28.24
2022-08-18T16:00:28.031Z,28.67
2022-08-18T16:03:00.196Z,28.09
2022-08-18T16:05:31.347Z,27.91
2022-08-18T16:08:01.354Z,28.24
2022-08-18T16:10:33.414Z,28.86
2022-08-18T16:13:04.489Z,28.45
2022-08-18T16:15:36.947Z,28.77
2022-08-18T16:18:06.555Z,28.72
2022-08-18T16:20:35.262Z,27.91
2022-08-18T16:23:03.964Z,28.22
2022-08-18T16:25:33.719Z,28.20
2022-08-18T16:28:02.577Z,28.04
2022-08-18T16:30:32.760Z,28.21
2022-08-18T16:33:02.864Z,28.18
2022-08-18T16:35:31.749Z,28.18
2022-08-18T16:38:04.841Z,28.31
2022-08-18T16:40:34.478Z,28.21
2022-08-18T16:43:02.773Z,27.91
2022-08-18T16:45:32.979Z,28.47
2022-08-18T16:48:02.363Z,28.64
2022-08-18T16:50:31.315Z,28.13
2022-08-18T16:53:00.062Z,28.24
2022-08-18T16:55:30.245Z,28.74
2022-08-18T16:58:17.671Z,27.84
2022-08-18T17:01:03.061Z,27.71
2022-08-18T17:03:49.037Z,27.80
2022-08-18T17:06:20.862Z,26.93
2022-08-18T17:08:49.202Z,26.22
2022-08-18T17:11:19.501Z,26.86
2022-08-18T17:13:50.805Z,26.90
2022-08-18T17:16:20.937Z,26.91
2022-08-18T17:18:49.406Z,26.12
2022-08-18T17:21:19.603Z,26.30
2022-08-18T17:23:48.886Z,26.88
2022-08-18T17:26:23.928Z,26.47
2022-08-18T17:28:58.450Z,26.17
2022-08-18T17:31:27.254Z,26.30
2022-08-18T17:33:58.104Z,25.93
2022-08-18T17:36:33.679Z,25.70
2022-08-18T17:39:05.326Z,26.20
2022-08-18T17:41:56.464Z,26.23
2022-08-18T17:44:31.177Z,26.75
2022-08-18T17:47:00.572Z,26.63
2022-08-18T17:49:49.382Z,26.93
2022-08-18T17:52:40.611Z,26.28
2022-08-18T17:55:15.433Z,25.73
2022-08-18T17:57:58.567Z,26.41
2022-08-18T18:00:32.814Z,26.09
2022-08-18T18:03:01.458Z,25.75
2022-08-18T18:05:40.923Z,26.17
2022-08-18T18:08:11.361Z,26.27
2022-08-18T18:11:04.008Z,26.41
2022-08-18T18:13:33.599Z,25.88
2022-08-18T18:16:21.331Z,25.90
2022-08-18T18:18:59.900Z,25.97
2022-08-18T18:22:00.703Z,26.13
2022-08-18T18:24:23.661Z,26.03
2022-08-18T18:26:53.936Z,26.57
2022-08-18T18:29:29.284Z,26.49
2022-08-18T18:32:05.991Z,26.23
2022-08-18T18:34:39.845Z,25.79
2022-08-18T18:37:26.161Z,25.74
2022-08-18T18:39:59.201Z,25.80
2022-08-18T18:42:29.656Z,25.36
2022-08-18T18:44:59.652Z,26.04
2022-08-18T18:47:44.254Z,25.13
2022-08-18T18:50:18.602Z,25.22
2022-08-18T18:52:52.955Z,25.10
2022-08-18T18:55:24.981Z,25.51
2022-08-18T18:58:03.393Z,25.74
2022-08-18T19:00:37.253Z,26.12
2022-08-18T19:03:12.906Z,25.58
2022-08-18T19:05:47.082Z,26.01
2022-08-18T19:08:24.111Z,26.31
2022-08-18T19:10:58.506Z,26.32
2022-08-18T19:13:33.042Z,25.91
2022-08-18T19:16:24.138Z,26.00
2022-08-18T19:18:57.746Z,26.12
2022-08-18T19:22:03.536Z,25.66
2022-08-18T19:24:38.839Z,25.97
2022-08-18T19:27:08.971Z,26.17
2022-08-18T19:29:41.116Z,26.13
2022-08-18T19:32:16.506Z,25.89
2022-08-18T19:34:51.592Z,25.82
2022-08-18T19:37:31.584Z,25.71
2022-08-18T19:40:07.363Z,25.72
2022-08-18T19:42:42.767Z,25.15
2022-08-18T19:45:19.376Z,25.95
2022-08-18T19:47:51.700Z,25.85
2022-08-18T19:50:27.898Z,26.03
2022-08-18T19:53:11.488Z,25.85
2022-08-18T19:55:51.150Z,25.68
2022-08-18T19:58:36.804Z,25.90
2022-08-18T20:01:10.894Z,26.27
2022-08-18T20:03:59.993Z,26.03
2022-08-18T20:06:56.313Z,25.97
2022-08-18T20:09:45.087Z,25.96
2022-08-18T20:12:17.745Z,25.78
2022-08-18T20:15:00.415Z,25.21
2022-08-18T20:17:28.712Z,25.21
2022-08-18T20:20:18.310Z,25.75
2022-08-18T20:22:51.218Z,25.65
2022-08-18T20:25:36.719Z,25.73
2022-08-18T20:28:36.442Z,25.20
2022-08-18T20:31:13.108Z,25.16
2022-08-18T20:33:46.841Z,25.42
2022-08-18T20:36:23.880Z,25.66
2022-08-18T20:38:55.639Z,25.87
2022-08-18T20:41:43.337Z,25.97
2022-08-18T20:44:48.018Z,25.91
2022-08-18T20:47:39.948Z,25.88
2022-08-18T20:50:34.061Z,25.64
2022-08-18T20:53:08.552Z,25.23
2022-08-18T20:55:46.257Z,25.36
2022-08-18T20:58:18.521Z,25.40
2022-08-18T21:00:50.745Z,25.07
2022-08-18T21:03:21.180Z,24.83
2022-08-18T21:05:51.582Z,24.66
2022-08-18T21:08:27.485Z,24.69
2022-08-18T21:10:59.413Z,25.17
2022-08-18T21:13:40.730Z,24.93
2022-08-18T21:16:10.097Z,24.76
2022-08-18T21:18:39.662Z,24.68
2022-08-18T21:21:15.941Z,24.67
2022-08-18T21:23:58.719Z,24.92
2022-08-18T21:26:30.585Z,24.40
2022-08-18T21:29:03.624Z,24.16
2022-08-18T21:31:44.012Z,25.00
2022-08-18T21:34:18.393Z,25.37
2022-08-18T21:36:52.481Z,24.97
2022-08-18T21:39:21.520Z,25.13
2022-08-18T21:41:54.458Z,24.89
2022-08-18T21:44:24.550Z,25.21
2022-08-18T21:46:53.853Z,24.64
2022-08-18T21:49:27.093Z,24.86
2022-08-18T21:51:57.328Z,24.53
2022-08-18T21:54:34.405Z,24.68
2022-08-18T21:57:22.754Z,24.48
2022-08-18T22:00:14.554Z,24.41
2022-08-18T22:02:42.785Z,25.15
2022-08-18T22:05:12.145Z,24.43
2022-08-18T22:07:47.918Z,24.95
2022-08-18T22:10:42.585Z,24.69
2022-08-18T22:13:37.290Z,24.85
2022-08-18T22:16:27.868Z,24.87
2022-08-18T22:19:13.838Z,25.20
2022-08-18T22:21:46.577Z,24.93
2022-08-18T22:24:19.601Z,24.89
2022-08-18T22:26:50.552Z,24.66
2022-08-18T22:29:33.953Z,24.84
2022-08-18T22:32:03.568Z,24.71
2022-08-18T22:34:34.426Z,24.79
2022-08-18T22:37:05.822Z,24.75
2022-08-18T22:39:41.777Z,24.80
2022-08-18T22:42:10.822Z,24.75
2022-08-18T22:44:41.616Z,24.51
2022-08-18T22:47:10.286Z,24.61
2022-08-18T22:49:38.921Z,24.71
2022-08-18T22:52:20.200Z,24.77
2022-08-18T22:54:50.912Z,24.76
2022-08-18T22:57:19.370Z,24.09
2022-08-18T22:59:53.372Z,24.17
2022-08-18T23:02:22.371Z,24.27
2022-08-18T23:04:50.562Z,24.38
2022-08-18T23:07:23.153Z,24.28
2022-08-18T23:09:51.327Z,24.53
2022-08-18T23:12:19.597Z,24.32
2022-08-18T23:14:49.701Z,24.28
2022-08-18T23:17:21.508Z,24.35
2022-08-18T23:19:52.284Z,24.41
2022-08-18T23:22:20.719Z,24.58
2022-08-18T23:24:49.015Z,24.25
2022-08-18T23:27:18.202Z,24.32
2022-08-18T23:29:46.488Z,24.47
2022-08-18T23:32:14.908Z,24.36
2022-08-18T23:34:44.519Z,24.29
2022-08-18T23:37:12.771Z,23.71
2022-08-18T23:39:41.847Z,24.06
2022-08-18T23:42:13.303Z,24.26
2022-08-18T23:44:42.316Z,24.26
2022-08-18T23:47:10.682Z,24.29
2022-08-18T23:49:39.154Z,23.95
2022-08-18T23:52:09.574Z,24.17
2022-08-18T23:54:37.919Z,24.11
2022-08-18T23:57:06.612Z,24.22
2022-08-18T23:59:35.055Z,24.23
